sensor_id;sensor_type;location;lat;lon;timestamp;pressure;altitude;pressure_sealevel;temperature;humidity
74310;BME280;62722;51.142;17.052;2023-04-10T00:01:05;101246.06;;;6.37;100.00
74310;BME280;62722;51.142;17.052;2023-04-10T00:03:32;101239.94;;;6.36;100.00
74310;BME280;62722;51.142;17.052;2023-04-10T00:06:00;101241.69;;;6.36;100.00
74310;BME280;62722;51.142;17.052;2023-04-10T00:08:28;101238.16;;;6.39;100.00
74310;BME280;62722;51.142;17.052;2023-04-10T00:10:56;101239.91;;;6.38;100.00
74310;BME280;62722;51.142;17.052;2023-04-10T00:13:23;101238.41;;;6.31;100.00
74310;BME280;62722;51.142;17.052;2023-04-10T00:15:51;101229.72;;;6.29;100.00
74310;BME280;62722;51.142;17.052;2023-04-10T00:18:18;101233.16;;;6.31;100.00
74310;BME280;62722;51.142;17.052;2023-04-10T00:20:46;101227.75;;;6.35;100.00
74310;BME280;62722;51.142;17.052;2023-04-10T00:23:13;101231.19;;;6.38;100.00
74310;BME280;62722;51.142;17.052;2023-04-10T00:25:43;101226.91;;;6.35;100.00
74310;BME280;62722;51.142;17.052;2023-04-10T00:28:10;101219.06;;;6.33;100.00
74310;BME280;62722;51.142;17.052;2023-04-10T00:30:37;101208.72;;;6.29;100.00
74310;BME280;62722;51.142;17.052;2023-04-10T00:33:05;101217.56;;;6.26;100.00
74310;BME280;62722;51.142;17.052;2023-04-10T00:35:32;101220.44;;;6.19;100.00
74310;BME280;62722;51.142;17.052;2023-04-10T00:37:59;101221.19;;;6.22;100.00
74310;BME280;62722;51.142;17.052;2023-04-10T00:40:27;101225.47;;;6.25;100.00
74310;BME280;62722;51.142;17.052;2023-04-10T00:42:56;101225.72;;;6.17;100.00
74310;BME280;62722;51.142;17.052;2023-04-10T00:45:24;101206.78;;;6.09;100.00
74310;BME280;62722;51.142;17.052;2023-04-10T00:47:52;101223.25;;;6.13;100.00
74310;BME280;62722;51.142;17.052;2023-04-10T00:50:20;101222.41;;;6.12;100.00
74310;BME280;62722;51.142;17.052;2023-04-10T00:52:48;101216.41;;;6.09;100.00
74310;BME280;62722;51.142;17.052;2023-04-10T00:55:17;101220.72;;;6.10;100.00
74310;BME280;62722;51.142;17.052;2023-04-10T00:57:45;101228.66;;;6.08;100.00
74310;BME280;62722;51.142;17.052;2023-04-10T01:00:15;101218.25;;;6.05;100.00
74310;BME280;62722;51.142;17.052;2023-04-10T01:02:42;101229.59;;;6.06;100.00
74310;BME280;62722;51.142;17.052;2023-04-10T01:05:11;101231.31;;;6.07;100.00
74310;BME280;62722;51.142;17.052;2023-04-10T01:07:51;101232.28;;;6.03;100.00
74310;BME280;62722;51.142;17.052;2023-04-10T01:10:28;101230.66;;;6.00;100.00
74310;BME280;62722;51.142;17.052;2023-04-10T01:13:06;101227.47;;;5.91;100.00
74310;BME280;62722;51.142;17.052;2023-04-10T01:15:42;101227.59;;;5.86;100.00
74310;BME280;62722;51.142;17.052;2023-04-10T01:18:16;101227.47;;;5.91;100.00
74310;BME280;62722;51.142;17.052;2023-04-10T01:20:46;101235.41;;;5.87;100.00
74310;BME280;62722;51.142;17.052;2023-04-10T01:23:38;101229.66;;;5.75;100.00
74310;BME280;62722;51.142;17.052;2023-04-10T01:26:09;101224.63;;;5.69;100.00
74310;BME280;62722;51.142;17.052;2023-04-10T01:28:49;101218.75;;;5.61;100.00
74310;BME280;62722;51.142;17.052;2023-04-10T01:31:22;101221.75;;;5.47;100.00
74310;BME280;62722;51.142;17.052;2023-04-10T01:33:57;101228.91;;;5.42;100.00
74310;BME280;62722;51.142;17.052;2023-04-10T01:36:30;101229.00;;;5.39;100.00
74310;BME280;62722;51.142;17.052;2023-04-10T01:39:00;101234.38;;;5.33;100.00
74310;BME280;62722;51.142;17.052;2023-04-10T01:41:30;101235.38;;;5.29;100.00
74310;BME280;62722;51.142;17.052;2023-04-10T01:43:59;101233.75;;;5.25;100.00
74310;BME280;62722;51.142;17.052;2023-04-10T01:46:29;101232.19;;;5.18;100.00
74310;BME280;62722;51.142;17.052;2023-04-10T01:49:00;101229.84;;;5.09;100.00
74310;BME280;62722;51.142;17.052;2023-04-10T01:51:30;101225.69;;;5.02;100.00
74310;BME280;62722;51.142;17.052;2023-04-10T01:53:58;101226.75;;;4.95;100.00
74310;BME280;62722;51.142;17.052;2023-04-10T01:56:27;101241.72;;;4.89;100.00
74310;BME280;62722;51.142;17.052;2023-04-10T01:58:55;101237.38;;;4.88;100.00
74310;BME280;62722;51.142;17.052;2023-04-10T02:01:24;101229.63;;;4.85;100.00
74310;BME280;62722;51.142;17.052;2023-04-10T02:03:51;101228.75;;;4.85;100.00
74310;BME280;62722;51.142;17.052;2023-04-10T02:06:27;101232.28;;;4.84;100.00
74310;BME280;62722;51.142;17.052;2023-04-10T02:09:01;101238.28;;;4.87;100.00
74310;BME280;62722;51.142;17.052;2023-04-10T02:11:39;101244.91;;;5.01;100.00
74310;BME280;62722;51.142;17.052;2023-04-10T02:14:10;101247.50;;;5.01;100.00
74310;BME280;62722;51.142;17.052;2023-04-10T02:16:39;101245.00;;;4.96;100.00
74310;BME280;62722;51.142;17.052;2023-04-10T02:19:09;101238.28;;;4.87;100.00
74310;BME280;62722;51.142;17.052;2023-04-10T02:21:38;101241.03;;;4.83;100.00
74310;BME280;62722;51.142;17.052;2023-04-10T02:24:07;101240.38;;;4.73;100.00
74310;BME280;62722;51.142;17.052;2023-04-10T02:26:44;101243.97;;;4.69;100.00
74310;BME280;62722;51.142;17.052;2023-04-10T02:29:11;101239.81;;;4.62;100.00
74310;BME280;62722;51.142;17.052;2023-04-10T02:31:41;101242.50;;;4.59;100.00
74310;BME280;62722;51.142;17.052;2023-04-10T02:34:09;101247.81;;;4.56;100.00
74310;BME280;62722;51.142;17.052;2023-04-10T02:36:37;101245.28;;;4.53;100.00
74310;BME280;62722;51.142;17.052;2023-04-10T02:39:05;101247.13;;;4.50;100.00
74310;BME280;62722;51.142;17.052;2023-04-10T02:41:33;101242.84;;;4.47;100.00
74310;BME280;62722;51.142;17.052;2023-04-10T02:44:00;101236.59;;;4.51;100.00
74310;BME280;62722;51.142;17.052;2023-04-10T02:46:28;101242.69;;;4.53;100.00
74310;BME280;62722;51.142;17.052;2023-04-10T02:48:57;101240.78;;;4.58;100.00
74310;BME280;62722;51.142;17.052;2023-04-10T02:51:24;101245.97;;;4.61;100.00
74310;BME280;62722;51.142;17.052;2023-04-10T02:53:52;101241.44;;;4.68;100.00
74310;BME280;62722;51.142;17.052;2023-04-10T02:56:19;101236.97;;;4.71;100.00
74310;BME280;62722;51.142;17.052;2023-04-10T02:58:47;101242.28;;;4.68;100.00
74310;BME280;62722;51.142;17.052;2023-04-10T03:01:14;101249.28;;;4.66;100.00
74310;BME280;62722;51.142;17.052;2023-04-10T03:03:42;101242.28;;;4.68;100.00
74310;BME280;62722;51.142;17.052;2023-04-10T03:06:11;101236.94;;;4.73;100.00
74310;BME280;62722;51.142;17.052;2023-04-10T03:08:38;101240.38;;;4.73;100.00
74310;BME280;62722;51.142;17.052;2023-04-10T03:11:07;101243.94;;;4.71;100.00
74310;BME280;62722;51.142;17.052;2023-04-10T03:13:34;101243.94;;;4.72;100.00
74310;BME280;62722;51.142;17.052;2023-04-10T03:16:02;101242.97;;;4.75;100.00
74310;BME280;62722;51.142;17.052;2023-04-10T03:18:29;101244.72;;;4.74;100.00
74310;BME280;62722;51.142;17.052;2023-04-10T03:20:59;101245.56;;;4.76;100.00
74310;BME280;62722;51.142;17.052;2023-04-10T03:23:28;101250.84;;;4.73;100.00
74310;BME280;62722;51.142;17.052;2023-04-10T03:25:56;101242.28;;;4.68;100.00
74310;BME280;62722;51.142;17.052;2023-04-10T03:28:24;101243.19;;;4.67;100.00
74310;BME280;62722;51.142;17.052;2023-04-10T03:30:52;101242.38;;;4.65;100.00
74310;BME280;62722;51.142;17.052;2023-04-10T03:33:20;101241.44;;;4.66;100.00
74310;BME280;62722;51.142;17.052;2023-04-10T03:35:48;101238.75;;;4.69;100.00
74310;BME280;62722;51.142;17.052;2023-04-10T03:38:15;101239.59;;;4.71;100.00
74310;BME280;62722;51.142;17.052;2023-04-10T03:40:44;101234.44;;;4.68;100.00
74310;BME280;62722;51.142;17.052;2023-04-10T03:43:11;101235.09;;;4.76;100.00
74310;BME280;62722;51.142;17.052;2023-04-10T03:45:39;101232.44;;;4.78;100.00
74310;BME280;62722;51.142;17.052;2023-04-10T03:48:07;101235.81;;;4.81;100.00
74310;BME280;62722;51.142;17.052;2023-04-10T03:50:35;101233.88;;;4.89;100.00
74310;BME280;62722;51.142;17.052;2023-04-10T03:53:02;101237.84;;;5.03;100.00
74310;BME280;62722;51.142;17.052;2023-04-10T03:55:30;101242.88;;;5.10;100.00
74310;BME280;62722;51.142;17.052;2023-04-10T03:57:59;101230.75;;;5.08;100.00
74310;BME280;62722;51.142;17.052;2023-04-10T04:00:27;101233.44;;;5.06;100.00
74310;BME280;62722;51.142;17.052;2023-04-10T04:02:54;101235.25;;;5.03;100.00
74310;BME280;62722;51.142;17.052;2023-04-10T04:05:22;101241.47;;;4.99;100.00
74310;BME280;62722;51.142;17.052;2023-04-10T04:07:49;101236.97;;;5.04;100.00
74310;BME280;62722;51.142;17.052;2023-04-10T04:10:16;101238.72;;;5.03;100.00
74310;BME280;62722;51.142;17.052;2023-04-10T04:12:43;101247.50;;;5.01;100.00
74310;BME280;62722;51.142;17.052;2023-04-10T04:15:12;101248.41;;;5.00;100.00
74310;BME280;62722;51.142;17.052;2023-04-10T04:17:40;101240.47;;;5.03;100.00
74310;BME280;62722;51.142;17.052;2023-04-10T04:20:08;101246.53;;;5.05;100.00
74310;BME280;62722;51.142;17.052;2023-04-10T04:22:35;101249.13;;;5.06;100.00
74310;BME280;62722;51.142;17.052;2023-04-10T04:25:03;101246.34;;;5.11;100.00
74310;BME280;62722;51.142;17.052;2023-04-10T04:27:33;101253.19;;;5.16;100.00
74310;BME280;62722;51.142;17.052;2023-04-10T04:30:01;101252.34;;;5.16;100.00
74310;BME280;62722;51.142;17.052;2023-04-10T04:32:29;101257.53;;;5.17;100.00
74310;BME280;62722;51.142;17.052;2023-04-10T04:34:57;101254.06;;;5.17;100.00
74310;BME280;62722;51.142;17.052;2023-04-10T04:37:24;101254.00;;;5.18;100.00
74310;BME280;62722;51.142;17.052;2023-04-10T04:39:51;101263.38;;;5.27;100.00
74310;BME280;62722;51.142;17.052;2023-04-10T04:42:19;101252.63;;;5.36;100.00
74310;BME280;62722;51.142;17.052;2023-04-10T04:44:48;101254.13;;;5.45;100.00
74310;BME280;62722;51.142;17.052;2023-04-10T04:47:15;101255.63;;;5.53;100.00
74310;BME280;62722;51.142;17.052;2023-04-10T04:49:44;101250.16;;;5.61;100.00
74310;BME280;62722;51.142;17.052;2023-04-10T04:52:11;101258.69;;;5.67;100.00
74310;BME280;62722;51.142;17.052;2023-04-10T04:54:39;101247.34;;;5.67;100.00
74310;BME280;62722;51.142;17.052;2023-04-10T04:57:06;101260.31;;;5.71;100.00
74310;BME280;62722;51.142;17.052;2023-04-10T04:59:34;101262.81;;;5.76;100.00
74310;BME280;62722;51.142;17.052;2023-04-10T05:02:02;101262.72;;;5.79;100.00
74310;BME280;62722;51.142;17.052;2023-04-10T05:04:30;101266.91;;;5.84;100.00
74310;BME280;62722;51.142;17.052;2023-04-10T05:06:59;101268.56;;;5.88;100.00
74310;BME280;62722;51.142;17.052;2023-04-10T05:09:26;101260.75;;;5.85;100.00
74310;BME280;62722;51.142;17.052;2023-04-10T05:11:53;101270.38;;;5.86;100.00
74310;BME280;62722;51.142;17.052;2023-04-10T05:14:21;101273.69;;;5.92;100.00
74310;BME280;62722;51.142;17.052;2023-04-10T05:16:48;101272.69;;;5.96;100.00
74310;BME280;62722;51.142;17.052;2023-04-10T05:19:15;101288.41;;;5.97;100.00
74310;BME280;62722;51.142;17.052;2023-04-10T05:21:43;101283.09;;;5.99;100.00
74310;BME280;62722;51.142;17.052;2023-04-10T05:24:12;101300.59;;;5.98;100.00
74310;BME280;62722;51.142;17.052;2023-04-10T05:26:39;101305.09;;;5.93;100.00
74310;BME280;62722;51.142;17.052;2023-04-10T05:29:07;101315.72;;;5.88;100.00
74310;BME280;62722;51.142;17.052;2023-04-10T05:31:35;101320.97;;;5.88;100.00
74310;BME280;62722;51.142;17.052;2023-04-10T05:34:02;101323.63;;;5.87;100.00
74310;BME280;62722;51.142;17.052;2023-04-10T05:36:29;101315.78;;;5.85;100.00
74310;BME280;62722;51.142;17.052;2023-04-10T05:38:57;101314.84;;;5.88;100.00
74310;BME280;62722;51.142;17.052;2023-04-10T05:41:26;101320.03;;;5.91;100.00
74310;BME280;62722;51.142;17.052;2023-04-10T05:43:53;101325.94;;;5.98;100.00
74310;BME280;62722;51.142;17.052;2023-04-10T05:46:20;101327.63;;;5.99;100.00
74310;BME280;62722;51.142;17.052;2023-04-10T05:48:48;101328.44;;;6.02;100.00
74310;BME280;62722;51.142;17.052;2023-04-10T05:51:15;101324.72;;;6.09;100.00
74310;BME280;62722;51.142;17.052;2023-04-10T05:53:43;101328.13;;;6.11;100.00
74310;BME280;62722;51.142;17.052;2023-04-10T05:56:10;101329.84;;;6.12;100.00
74310;BME280;62722;51.142;17.052;2023-04-10T05:58:39;101325.41;;;6.14;100.00
74310;BME280;62722;51.142;17.052;2023-04-10T06:01:06;101325.28;;;6.19;100.00
74310;BME280;62722;51.142;17.052;2023-04-10T06:03:34;101317.22;;;6.25;100.00
74310;BME280;62722;51.142;17.052;2023-04-10T06:06:01;101310.19;;;6.27;100.00
74310;BME280;62722;51.142;17.052;2023-04-10T06:08:29;101313.56;;;6.30;100.00
74310;BME280;62722;51.142;17.052;2023-04-10T06:10:56;101313.56;;;6.30;100.00
74310;BME280;62722;51.142;17.052;2023-04-10T06:13:23;101313.31;;;6.38;100.00
74310;BME280;62722;51.142;17.052;2023-04-10T06:15:53;101321.09;;;6.41;100.00
74310;BME280;62722;51.142;17.052;2023-04-10T06:18:22;101320.28;;;6.39;100.00
74310;BME280;62722;51.142;17.052;2023-04-10T06:20:49;101320.22;;;6.41;100.00
74310;BME280;62722;51.142;17.052;2023-04-10T06:23:16;101321.94;;;6.42;100.00
74310;BME280;62722;51.142;17.052;2023-04-10T06:25:44;101321.19;;;6.38;100.00
74310;BME280;62722;51.142;17.052;2023-04-10T06:28:11;101313.31;;;6.38;100.00
74310;BME280;62722;51.142;17.052;2023-04-10T06:30:38;101306.31;;;6.39;100.00
74310;BME280;62722;51.142;17.052;2023-04-10T06:33:07;101319.47;;;6.37;100.00
74310;BME280;62722;51.142;17.052;2023-04-10T06:35:34;101313.44;;;6.35;100.00
74310;BME280;62722;51.142;17.052;2023-04-10T06:38:02;101308.88;;;6.40;100.00
74310;BME280;62722;51.142;17.052;2023-04-10T06:40:29;101317.47;;;6.45;100.00
74310;BME280;62722;51.142;17.052;2023-04-10T06:42:59;101315.50;;;6.52;100.00
74310;BME280;62722;51.142;17.052;2023-04-10T06:45:26;101317.25;;;6.51;100.00
74310;BME280;62722;51.142;17.052;2023-04-10T06:47:53;101321.50;;;6.55;100.00
74310;BME280;62722;51.142;17.052;2023-04-10T06:50:22;101326.84;;;6.52;100.00
74310;BME280;62722;51.142;17.052;2023-04-10T06:52:49;101332.44;;;6.42;100.00
74310;BME280;62722;51.142;17.052;2023-04-10T06:55:18;101328.94;;;6.41;100.00
74310;BME280;62722;51.142;17.052;2023-04-10T06:57:45;101338.25;;;6.51;100.00
74310;BME280;62722;51.142;17.052;2023-04-10T07:00:13;101345.00;;;6.58;100.00
74310;BME280;62722;51.142;17.052;2023-04-10T07:02:41;101351.31;;;6.53;100.00
74310;BME280;62722;51.142;17.052;2023-04-10T07:05:08;101348.84;;;6.48;100.00
74310;BME280;62722;51.142;17.052;2023-04-10T07:07:38;101346.22;;;6.48;100.00
74310;BME280;62722;51.142;17.052;2023-04-10T07:10:06;101345.31;;;6.49;100.00
74310;BME280;62722;51.142;17.052;2023-04-10T07:12:34;101338.13;;;6.54;100.00
74310;BME280;62722;51.142;17.052;2023-04-10T07:15:01;101343.00;;;6.66;100.00
74310;BME280;62722;51.142;17.052;2023-04-10T07:17:28;101328.34;;;6.87;100.00
74310;BME280;62722;51.142;17.052;2023-04-10T07:19:56;101328.84;;;6.98;100.00
74310;BME280;62722;51.142;17.052;2023-04-10T07:22:23;101328.84;;;6.98;100.00
74310;BME280;62722;51.142;17.052;2023-04-10T07:24:52;101340.16;;;6.99;100.00
74310;BME280;62722;51.142;17.052;2023-04-10T07:27:20;101337.38;;;7.03;100.00
74310;BME280;62722;51.142;17.052;2023-04-10T07:29:47;101346.88;;;7.07;100.00
74310;BME280;62722;51.142;17.052;2023-04-10T07:32:15;101338.88;;;7.10;100.00
74310;BME280;62722;51.142;17.052;2023-04-10T07:34:42;101344.25;;;7.07;100.00
74310;BME280;62722;51.142;17.052;2023-04-10T07:37:10;101336.44;;;7.06;100.00
74310;BME280;62722;51.142;17.052;2023-04-10T07:39:38;101340.88;;;7.04;100.00
74310;BME280;62722;51.142;17.052;2023-04-10T07:42:09;101329.38;;;7.08;100.00
74310;BME280;62722;51.142;17.052;2023-04-10T07:44:36;101336.00;;;7.18;100.00
74310;BME280;62722;51.142;17.052;2023-04-10T07:47:03;101335.81;;;7.24;100.00
74310;BME280;62722;51.142;17.052;2023-04-10T07:49:30;101331.19;;;7.30;100.00
74310;BME280;62722;51.142;17.052;2023-04-10T07:51:58;101336.28;;;7.35;100.00
74310;BME280;62722;51.142;17.052;2023-04-10T07:54:25;101333.31;;;7.44;100.00
74310;BME280;62722;51.142;17.052;2023-04-10T07:56:53;101324.19;;;7.54;100.00
74310;BME280;62722;51.142;17.052;2023-04-10T07:59:21;101331.72;;;7.65;100.00
74310;BME280;62722;51.142;17.052;2023-04-10T08:01:49;101335.75;;;7.73;100.00
74310;BME280;62722;51.142;17.052;2023-04-10T08:04:16;101332.97;;;7.78;100.00
74310;BME280;62722;51.142;17.052;2023-04-10T08:06:43;101328.50;;;7.80;100.00
74310;BME280;62722;51.142;17.052;2023-04-10T08:09:10;101323.06;;;7.84;99.92
74310;BME280;62722;51.142;17.052;2023-04-10T08:11:38;101331.66;;;7.90;100.00
74310;BME280;62722;51.142;17.052;2023-04-10T08:14:06;101332.50;;;7.90;100.00
74310;BME280;62722;51.142;17.052;2023-04-10T08:16:35;101330.50;;;7.97;99.71
74310;BME280;62722;51.142;17.052;2023-04-10T08:19:03;101336.56;;;7.99;99.43
74310;BME280;62722;51.142;17.052;2023-04-10T08:21:30;101317.13;;;8.03;98.84
74310;BME280;62722;51.142;17.052;2023-04-10T08:23:59;101325.56;;;8.11;98.38
74310;BME280;62722;51.142;17.052;2023-04-10T08:26:28;101324.72;;;8.10;96.02
74310;BME280;62722;51.142;17.052;2023-04-10T08:28:57;101330.25;;;8.03;96.14
74310;BME280;62722;51.142;17.052;2023-04-10T08:31:26;101314.19;;;8.10;97.25
74310;BME280;62722;51.142;17.052;2023-04-10T08:33:55;101320.03;;;8.18;97.75
74310;BME280;62722;51.142;17.052;2023-04-10T08:36:22;101324.97;;;8.26;97.03
74310;BME280;62722;51.142;17.052;2023-04-10T08:38:49;101321.41;;;8.28;96.34
74310;BME280;62722;51.142;17.052;2023-04-10T08:41:18;101320.59;;;8.26;97.32
74310;BME280;62722;51.142;17.052;2023-04-10T08:43:45;101330.75;;;8.36;96.61
74310;BME280;62722;51.142;17.052;2023-04-10T08:46:15;101323.72;;;8.36;95.49
74310;BME280;62722;51.142;17.052;2023-04-10T08:48:45;101328.94;;;8.38;96.08
74310;BME280;62722;51.142;17.052;2023-04-10T08:51:18;101326.00;;;8.45;95.63
74310;BME280;62722;51.142;17.052;2023-04-10T08:53:49;101327.34;;;8.55;95.81
74310;BME280;62722;51.142;17.052;2023-04-10T08:56:17;101323.22;;;8.70;95.14
74310;BME280;62722;51.142;17.052;2023-04-10T08:58:44;101310.66;;;8.76;95.49
74310;BME280;62722;51.142;17.052;2023-04-10T09:01:12;101317.28;;;8.87;95.75
74310;BME280;62722;51.142;17.052;2023-04-10T09:03:40;101315.16;;;8.95;94.72
74310;BME280;62722;51.142;17.052;2023-04-10T09:06:08;101313.88;;;9.05;92.57
74310;BME280;62722;51.142;17.052;2023-04-10T09:08:36;101309.56;;;9.02;92.67
74310;BME280;62722;51.142;17.052;2023-04-10T09:11:04;101311.69;;;9.14;93.75
74310;BME280;62722;51.142;17.052;2023-04-10T09:13:37;101306.16;;;9.20;93.85
74310;BME280;62722;51.142;17.052;2023-04-10T09:16:06;101305.91;;;9.26;93.22
74310;BME280;62722;51.142;17.052;2023-04-10T09:18:40;101305.03;;;9.26;91.54
74310;BME280;62722;51.142;17.052;2023-04-10T09:21:09;101306.75;;;9.27;91.92
74310;BME280;62722;51.142;17.052;2023-04-10T09:23:38;101300.81;;;9.42;90.78
74310;BME280;62722;51.142;17.052;2023-04-10T09:26:24;101306.09;;;9.61;90.95
74310;BME280;62722;51.142;17.052;2023-04-10T09:28:57;101286.69;;;9.63;90.15
74310;BME280;62722;51.142;17.052;2023-04-10T09:31:30;101282.63;;;9.56;90.12
74310;BME280;62722;51.142;17.052;2023-04-10T09:34:07;101288.50;;;9.61;90.50
74310;BME280;62722;51.142;17.052;2023-04-10T09:36:35;101275.28;;;9.63;90.19
74310;BME280;62722;51.142;17.052;2023-04-10T09:39:04;101271.09;;;9.77;89.82
74310;BME280;62722;51.142;17.052;2023-04-10T09:41:32;101265.25;;;9.90;91.09
74310;BME280;62722;51.142;17.052;2023-04-10T09:44:06;101258.56;;;9.83;89.68
74310;BME280;62722;51.142;17.052;2023-04-10T09:46:33;101263.56;;;9.68;90.61
74310;BME280;62722;51.142;17.052;2023-04-10T09:49:01;101258.44;;;9.65;90.87
74310;BME280;62722;51.142;17.052;2023-04-10T09:51:31;101249.63;;;9.66;90.16
74310;BME280;62722;51.142;17.052;2023-04-10T09:54:00;101248.50;;;9.53;90.78
74310;BME280;62722;51.142;17.052;2023-04-10T09:56:29;101236.50;;;9.65;91.62
74310;BME280;62722;51.142;17.052;2023-04-10T09:58:58;101230.63;;;9.78;90.82
74310;BME280;62722;51.142;17.052;2023-04-10T10:01:27;101234.81;;;9.83;90.90
74310;BME280;62722;51.142;17.052;2023-04-10T10:03:55;101241.06;;;9.80;89.12
74310;BME280;62722;51.142;17.052;2023-04-10T10:06:26;101233.31;;;9.77;88.90
74310;BME280;62722;51.142;17.052;2023-04-10T10:08:57;101229.41;;;9.86;89.32
74310;BME280;62722;51.142;17.052;2023-04-10T10:11:32;101225.91;;;9.85;88.75
74310;BME280;62722;51.142;17.052;2023-04-10T10:14:02;101220.06;;;9.97;88.16
74310;BME280;62722;51.142;17.052;2023-04-10T10:16:33;101226.75;;;10.04;89.06
74310;BME280;62722;51.142;17.052;2023-04-10T10:19:08;101213.19;;;10.12;89.99
74310;BME280;62722;51.142;17.052;2023-04-10T10:21:37;101217.50;;;10.13;88.63
74310;BME280;62722;51.142;17.052;2023-04-10T10:24:07;101217.66;;;10.29;86.68
74310;BME280;62722;51.142;17.052;2023-04-10T10:26:38;101210.75;;;10.43;87.17
74310;BME280;62722;51.142;17.052;2023-04-10T10:29:06;101217.53;;;10.49;86.45
74310;BME280;62722;51.142;17.052;2023-04-10T10:31:36;101211.25;;;10.51;86.07
74310;BME280;62722;51.142;17.052;2023-04-10T10:34:04;101210.84;;;10.42;85.27
74310;BME280;62722;51.142;17.052;2023-04-10T10:36:34;101211.31;;;10.33;85.95
74310;BME280;62722;51.142;17.052;2023-04-10T10:39:20;101208.50;;;10.36;84.73
74310;BME280;62722;51.142;17.052;2023-04-10T10:41:59;101203.53;;;10.30;84.79
74310;BME280;62722;51.142;17.052;2023-04-10T10:44:35;101198.03;;;10.34;85.81
74310;BME280;62722;51.142;17.052;2023-04-10T10:47:12;101190.72;;;10.39;86.03
74310;BME280;62722;51.142;17.052;2023-04-10T10:49:54;101197.34;;;10.48;84.16
74310;BME280;62722;51.142;17.052;2023-04-10T10:52:39;101190.28;;;10.48;84.51
74310;BME280;62722;51.142;17.052;2023-04-10T10:57:55;101187.16;;;10.57;82.92
74310;BME280;62722;51.142;17.052;2023-04-10T11:00:24;101177.94;;;10.49;83.75
74310;BME280;62722;51.142;17.052;2023-04-10T11:05:53;101182.16;;;10.53;84.97
74310;BME280;62722;51.142;17.052;2023-04-10T11:08:35;101171.09;;;10.62;83.32
74310;BME280;62722;51.142;17.052;2023-04-10T11:11:05;101167.38;;;10.66;83.40
74310;BME280;62722;51.142;17.052;2023-04-10T11:13:35;101171.56;;;10.70;85.42
74310;BME280;62722;51.142;17.052;2023-04-10T11:16:04;101165.56;;;10.84;82.00
74310;BME280;62722;51.142;17.052;2023-04-10T11:19:03;101164.91;;;10.96;80.55
74310;BME280;62722;51.142;17.052;2023-04-10T11:21:31;101166.31;;;11.03;80.27
74310;BME280;62722;51.142;17.052;2023-04-10T11:24:03;101154.81;;;11.04;79.98
74310;BME280;62722;51.142;17.052;2023-04-10T11:26:38;101160.00;;;11.05;79.00
74310;BME280;62722;51.142;17.052;2023-04-10T11:29:32;101148.75;;;11.02;79.07
74310;BME280;62722;51.142;17.052;2023-04-10T11:32:00;101144.31;;;11.02;80.42
74310;BME280;62722;51.142;17.052;2023-04-10T11:34:28;101137.41;;;11.00;80.38
74310;BME280;62722;51.142;17.052;2023-04-10T11:36:58;101135.34;;;11.05;79.31
74310;BME280;62722;51.142;17.052;2023-04-10T11:39:29;101128.97;;;11.09;79.78
74310;BME280;62722;51.142;17.052;2023-04-10T11:41:56;101127.28;;;11.08;79.54
74310;BME280;62722;51.142;17.052;2023-04-10T11:44:31;101120.06;;;11.11;79.07
74310;BME280;62722;51.142;17.052;2023-04-10T11:47:00;101128.97;;;11.09;79.92
74310;BME280;62722;51.142;17.052;2023-04-10T11:49:30;101125.25;;;11.13;80.21
74310;BME280;62722;51.142;17.052;2023-04-10T11:51:58;101120.41;;;11.21;79.74
74310;BME280;62722;51.142;17.052;2023-04-10T11:54:26;101125.78;;;11.35;79.43
74310;BME280;62722;51.142;17.052;2023-04-10T11:56:57;101124.09;;;11.34;78.76
74310;BME280;62722;51.142;17.052;2023-04-10T11:59:26;101120.31;;;11.38;79.62
74310;BME280;62722;51.142;17.052;2023-04-10T12:02:05;101114.72;;;11.44;79.64
74310;BME280;62722;51.142;17.052;2023-04-10T12:04:34;101115.81;;;11.56;78.40
74310;BME280;62722;51.142;17.052;2023-04-10T12:07:01;101115.22;;;11.82;77.26
74310;BME280;62722;51.142;17.052;2023-04-10T12:09:29;101114.84;;;12.04;74.33
74310;BME280;62722;51.142;17.052;2023-04-10T12:11:59;101108.16;;;12.12;75.19
74310;BME280;62722;51.142;17.052;2023-04-10T12:14:29;101110.94;;;12.25;75.97
74310;BME280;62722;51.142;17.052;2023-04-10T12:16:58;101107.91;;;12.31;75.86
74310;BME280;62722;51.142;17.052;2023-04-10T12:19:27;101107.38;;;12.40;73.27
74310;BME280;62722;51.142;17.052;2023-04-10T12:21:56;101104.16;;;12.35;75.10
74310;BME280;62722;51.142;17.052;2023-04-10T12:24:41;101085.53;;;12.37;75.82
74310;BME280;62722;51.142;17.052;2023-04-10T12:27:14;101090.91;;;12.35;76.10
74310;BME280;62722;51.142;17.052;2023-04-10T12:29:43;101082.91;;;12.51;75.14
74310;BME280;62722;51.142;17.052;2023-04-10T12:32:10;101076.56;;;12.67;72.99
74310;BME280;62722;51.142;17.052;2023-04-10T12:34:39;101090.59;;;12.84;73.26
74310;BME280;62722;51.142;17.052;2023-04-10T12:37:06;101081.31;;;12.91;71.65
74310;BME280;62722;51.142;17.052;2023-04-10T12:39:34;101089.63;;;12.99;71.16
74310;BME280;62722;51.142;17.052;2023-04-10T12:42:12;101085.38;;;12.96;74.11
74310;BME280;62722;51.142;17.052;2023-04-10T12:44:50;101088.59;;;12.87;73.97
74310;BME280;62722;51.142;17.052;2023-04-10T12:47:17;101079.06;;;12.85;72.21
74310;BME280;62722;51.142;17.052;2023-04-10T12:50:07;101078.66;;;12.77;73.87
74310;BME280;62722;51.142;17.052;2023-04-10T12:52:36;101076.69;;;12.66;73.80
74310;BME280;62722;51.142;17.052;2023-04-10T12:55:11;101077.88;;;12.60;74.44
74310;BME280;62722;51.142;17.052;2023-04-10T12:57:39;101070.97;;;12.44;76.31